Time;durP1;ratioP1;P1;durP2;ratioP2;P2;SDS_P1;SDS_P2;PMS_P1;PMS_P2;Temp;Humidity;BMP_temperature;BMP_pressure;BME280_temperature;BME280_humidity;BME280_pressure;Samples;Min_cycle;Max_cycle;Signal;HPM_P1;HPM_P2
2022/06/21 00:01:21;;;;;;;9.23;0.90;;;15.00;99.90;;;;;;5045037;28;20554;-48
2022/06/21 00:03:49;;;;;;;7.57;0.90;;;14.90;99.90;;;;;;5039097;28;20499;-48
2022/06/21 00:06:19;;;;;;;6.53;0.70;;;14.90;99.90;;;;;;5035664;28;20033;-46
2022/06/21 00:08:44;;;;;;;5.50;0.60;;;14.90;99.90;;;;;;5039417;28;21613;-48
2022/06/21 00:11:31;;;;;;;4.35;0.40;;;14.90;99.90;;;;;;5034181;28;20598;-48
2022/06/21 00:13:57;;;;;;;5.32;0.60;;;14.80;99.90;;;;;;5035384;28;20064;-49
2022/06/21 00:16:25;;;;;;;4.72;0.88;;;14.70;99.90;;;;;;5038362;28;20037;-48
2022/06/21 00:18:52;;;;;;;6.15;0.70;;;14.70;99.90;;;;;;5038069;28;20041;-45
2022/06/21 00:21:22;;;;;;;4.78;0.70;;;14.70;99.90;;;;;;5037549;28;20047;-48
2022/06/21 00:23:50;;;;;;;4.43;0.45;;;14.70;99.90;;;;;;5037253;28;20038;-47
2022/06/21 00:26:17;;;;;;;4.63;0.55;;;14.60;99.90;;;;;;5040658;28;20348;-48
2022/06/21 00:28:43;;;;;;;5.88;0.50;;;14.60;99.90;;;;;;5018399;28;20036;-47
2022/06/21 00:31:21;;;;;;;4.90;0.50;;;14.60;99.90;;;;;;5037929;28;20056;-46
2022/06/21 00:33:47;;;;;;;4.70;0.57;;;14.60;99.90;;;;;;5042342;28;20041;-47
2022/06/21 00:36:25;;;;;;;2.97;0.40;;;14.50;99.90;;;;;;5032838;28;20033;-48
2022/06/21 00:38:53;;;;;;;4.10;0.50;;;14.60;99.90;;;;;;5037790;28;20090;-47
2022/06/21 00:41:25;;;;;;;4.38;0.43;;;14.50;99.90;;;;;;5035540;28;20037;-50
2022/06/21 00:43:53;;;;;;;3.90;0.40;;;14.50;99.90;;;;;;5038266;28;20080;-49
2022/06/21 00:46:30;;;;;;;4.10;0.50;;;14.50;99.90;;;;;;5033078;28;20041;-47
2022/06/21 00:48:56;;;;;;;4.35;0.40;;;14.50;99.90;;;;;;5042013;28;20049;-48
2022/06/21 00:51:39;;;;;;;4.72;0.60;;;14.40;99.90;;;;;;5034223;28;20072;-49
2022/06/21 00:54:17;;;;;;;5.13;0.50;;;14.40;99.90;;;;;;5040812;28;20369;-49
2022/06/21 00:57:05;;;;;;;5.78;0.60;;;14.40;99.90;;;;;;5039794;28;20103;-49
2022/06/21 00:59:33;;;;;;;5.32;0.52;;;14.40;99.90;;;;;;5043346;28;20040;-47
2022/06/21 01:02:04;;;;;;;5.50;0.55;;;14.40;99.90;;;;;;5041629;28;20047;-45
2022/06/21 01:04:35;;;;;;;5.72;0.80;;;14.30;99.90;;;;;;5044891;28;20044;-49
2022/06/21 01:07:05;;;;;;;4.22;0.50;;;14.30;99.90;;;;;;5038525;28;20041;-47
2022/06/21 01:09:43;;;;;;;3.80;0.50;;;14.20;99.90;;;;;;5055302;28;20048;-46
2022/06/21 01:12:15;;;;;;;3.97;0.50;;;14.20;99.90;;;;;;5040998;28;20053;-46
2022/06/21 01:14:47;;;;;;;3.33;0.50;;;14.20;99.90;;;;;;5040365;28;20407;-49
2022/06/21 01:17:14;;;;;;;3.63;0.47;;;14.10;99.90;;;;;;5043122;28;20041;-48
2022/06/21 01:19:58;;;;;;;5.13;0.60;;;14.10;99.90;;;;;;5029208;28;20071;-46
2022/06/21 01:22:43;;;;;;;5.60;0.60;;;14.00;99.90;;;;;;5036651;28;20455;-46
2022/06/21 01:25:20;;;;;;;3.92;0.50;;;14.00;99.90;;;;;;5058063;28;20138;-47
2022/06/21 01:27:46;;;;;;;3.00;0.43;;;13.90;99.90;;;;;;5034785;28;20559;-46
2022/06/21 01:30:12;;;;;;;4.45;0.52;;;13.90;99.90;;;;;;5036059;28;20052;-48
2022/06/21 01:32:38;;;;;;;5.85;0.50;;;13.80;99.90;;;;;;5038558;28;20113;-48
2022/06/21 01:35:16;;;;;;;4.20;0.50;;;13.80;99.90;;;;;;5037906;28;20045;-49
2022/06/21 01:37:42;;;;;;;2.28;0.40;;;13.80;99.90;;;;;;5033557;28;20047;-46
2022/06/21 01:40:16;;;;;;;4.93;0.70;;;13.70;99.90;;;;;;5040823;28;20045;-49
2022/06/21 01:42:47;;;;;;;3.90;0.45;;;13.70;99.90;;;;;;5044229;28;20045;-47
2022/06/21 01:45:20;;;;;;;3.50;0.50;;;13.60;99.90;;;;;;5038761;28;20051;-48
2022/06/21 01:48:02;;;;;;;4.88;0.70;;;13.60;99.90;;;;;;5038068;28;20060;-49
2022/06/21 01:50:29;;;;;;;3.42;0.50;;;13.60;99.90;;;;;;5037531;28;20537;-45
2022/06/21 01:52:55;;;;;;;3.72;0.60;;;13.60;99.90;;;;;;5042218;28;20045;-47
2022/06/21 01:55:40;;;;;;;5.95;0.80;;;13.50;99.90;;;;;;5040117;28;20048;-48
2022/06/21 01:58:11;;;;;;;3.75;0.70;;;13.50;99.90;;;;;;5040464;28;21736;-46
2022/06/21 02:00:40;;;;;;;4.15;0.43;;;13.40;99.90;;;;;;5039183;28;20550;-48
2022/06/21 02:03:15;;;;;;;3.78;0.40;;;13.40;99.90;;;;;;5037761;28;20402;-45
2022/06/21 02:05:46;;;;;;;3.92;0.50;;;13.40;99.90;;;;;;5054448;28;20440;-50
2022/06/21 02:08:16;;;;;;;4.32;0.52;;;13.30;99.90;;;;;;5044930;28;20048;-48
2022/06/21 02:10:48;;;;;;;3.75;0.52;;;13.30;99.90;;;;;;5040863;28;20415;-49
2022/06/21 02:13:35;;;;;;;3.47;0.47;;;13.30;99.90;;;;;;5047250;28;20033;-48
2022/06/21 02:16:15;;;;;;;4.53;0.50;;;13.30;99.90;;;;;;5045226;28;20095;-45
2022/06/21 02:18:46;;;;;;;3.58;0.50;;;13.20;99.90;;;;;;5041598;28;20151;-47
2022/06/21 02:21:21;;;;;;;3.28;0.55;;;13.20;99.90;;;;;;5035717;28;20514;-47
2022/06/21 02:23:51;;;;;;;4.85;0.73;;;13.20;99.90;;;;;;5040072;28;20399;-47
2022/06/21 02:26:17;;;;;;;4.85;0.60;;;13.10;99.90;;;;;;5020589;28;20082;-47
2022/06/21 02:28:45;;;;;;;4.13;0.50;;;13.10;99.90;;;;;;5035261;28;20073;-46
2022/06/21 02:31:11;;;;;;;4.65;0.50;;;13.10;99.90;;;;;;5035892;28;20514;-49
2022/06/21 02:33:39;;;;;;;3.15;0.50;;;13.10;99.90;;;;;;5032825;28;20038;-47
2022/06/21 02:36:11;;;;;;;3.00;0.50;;;13.00;99.90;;;;;;5039439;28;20036;-47
2022/06/21 02:39:00;;;;;;;4.30;0.73;;;13.00;99.90;;;;;;5045795;28;20064;-47
2022/06/21 02:41:39;;;;;;;2.80;0.43;;;13.00;99.90;;;;;;5041264;28;20075;-46
2022/06/21 02:44:26;;;;;;;3.25;0.43;;;12.90;99.90;;;;;;5036836;28;20033;-49
2022/06/21 02:46:56;;;;;;;3.42;0.50;;;12.90;99.90;;;;;;5039796;28;20045;-47
2022/06/21 02:49:37;;;;;;;4.47;0.45;;;12.90;99.90;;;;;;5036242;28;20566;-48
2022/06/21 02:52:13;;;;;;;4.22;0.50;;;12.80;99.90;;;;;;5042534;28;20041;-47
2022/06/21 02:54:46;;;;;;;4.78;0.50;;;12.80;99.90;;;;;;5052731;28;20085;-47
2022/06/21 02:57:36;;;;;;;5.30;0.68;;;12.80;99.90;;;;;;5037852;28;20044;-46
2022/06/21 03:00:05;;;;;;;3.08;0.60;;;12.80;99.90;;;;;;5037317;28;20067;-47
2022/06/21 03:02:35;;;;;;;4.72;0.68;;;12.70;99.90;;;;;;5036552;28;20048;-47
2022/06/21 03:05:04;;;;;;;4.68;0.85;;;12.70;99.90;;;;;;5037855;28;20114;-46
2022/06/21 03:07:34;;;;;;;2.85;0.40;;;12.60;99.90;;;;;;5037559;28;20044;-47
2022/06/21 03:10:00;;;;;;;4.43;0.60;;;12.60;99.90;;;;;;5034027;28;20068;-47
2022/06/21 03:12:30;;;;;;;3.35;0.65;;;12.60;99.90;;;;;;5035902;28;20145;-48
2022/06/21 03:15:00;;;;;;;3.75;0.60;;;12.50;99.90;;;;;;5037226;28;20045;-49
2022/06/21 03:17:38;;;;;;;4.00;0.60;;;12.50;99.90;;;;;;5039324;28;20484;-47
2022/06/21 03:20:13;;;;;;;2.60;0.50;;;12.40;99.90;;;;;;5037449;28;20049;-48
2022/06/21 03:22:40;;;;;;;3.15;0.55;;;12.40;99.90;;;;;;5035275;28;20112;-48
2022/06/21 03:25:19;;;;;;;3.10;0.40;;;12.40;99.90;;;;;;5038544;28;20090;-45
2022/06/21 03:27:57;;;;;;;3.33;0.52;;;12.40;99.90;;;;;;5036037;28;20041;-46
2022/06/21 03:30:30;;;;;;;3.47;0.50;;;12.40;99.90;;;;;;5037343;28;20509;-46
2022/06/21 03:32:57;;;;;;;3.65;0.77;;;12.40;99.90;;;;;;5033547;28;20041;-46
2022/06/21 03:35:25;;;;;;;2.33;0.40;;;12.40;99.90;;;;;;5032165;28;20463;-49
2022/06/21 03:37:51;;;;;;;5.10;0.70;;;12.30;99.90;;;;;;5033510;28;20056;-48
2022/06/21 03:43:15;;;;;;;2.63;0.40;;;12.30;99.90;;;;;;5039083;28;20053;-49
2022/06/21 03:45:44;;;;;;;2.00;0.60;;;12.30;99.90;;;;;;5041473;28;20053;-47
2022/06/21 03:48:21;;;;;;;2.03;0.40;;;12.30;99.90;;;;;;5035266;28;20068;-47
2022/06/21 03:51:11;;;;;;;3.05;0.65;;;12.30;99.90;;;;;;5037233;28;20045;-47
2022/06/21 03:53:45;;;;;;;3.22;0.50;;;12.30;99.90;;;;;;5038961;28;20041;-48
2022/06/21 03:56:25;;;;;;;2.05;0.43;;;12.30;99.90;;;;;;5037126;28;20037;-48
2022/06/21 03:59:14;;;;;;;3.60;0.50;;;12.30;99.90;;;;;;5039380;28;20041;-49
2022/06/21 04:01:46;;;;;;;4.80;0.57;;;12.30;99.90;;;;;;5032940;28;20068;-46
2022/06/21 04:04:38;;;;;;;4.35;1.08;;;12.30;99.90;;;;;;5041616;28;20149;-48
2022/06/21 04:07:21;;;;;;;2.53;0.52;;;12.40;99.90;;;;;;5034582;28;20060;-47
2022/06/21 04:09:50;;;;;;;5.32;0.60;;;12.40;99.90;;;;;;5038386;28;20109;-45
2022/06/21 04:12:32;;;;;;;4.22;0.60;;;12.40;99.90;;;;;;5041686;28;20037;-45
2022/06/21 04:14:58;;;;;;;2.95;0.60;;;12.40;99.90;;;;;;5042053;28;20483;-46
2022/06/21 04:17:48;;;;;;;3.10;0.60;;;12.40;99.90;;;;;;5043385;28;20442;-49
2022/06/21 04:20:24;;;;;;;3.17;0.52;;;12.50;99.90;;;;;;5036957;28;20133;-47
2022/06/21 04:22:53;;;;;;;3.95;0.50;;;12.50;99.90;;;;;;5035278;28;20418;-46
2022/06/21 04:25:22;;;;;;;4.30;0.47;;;12.50;99.90;;;;;;5034645;28;20037;-46
2022/06/21 04:27:58;;;;;;;3.78;0.60;;;12.60;99.90;;;;;;5032425;28;20049;-47
2022/06/21 04:30:40;;;;;;;3.65;0.80;;;12.60;99.90;;;;;;5038012;28;21671;-48
2022/06/21 04:33:23;;;;;;;3.13;0.55;;;12.60;99.90;;;;;;5060349;28;20068;-47
2022/06/21 04:36:06;;;;;;;3.30;0.60;;;12.70;99.90;;;;;;5039294;28;20440;-46
2022/06/21 04:38:37;;;;;;;2.67;0.50;;;12.70;99.90;;;;;;5039980;28;20044;-46
2022/06/21 04:41:25;;;;;;;3.17;0.52;;;12.70;99.90;;;;;;5041196;28;20060;-48
2022/06/21 04:44:10;;;;;;;3.67;0.50;;;12.80;99.90;;;;;;5037375;28;20044;-49
2022/06/21 04:46:58;;;;;;;4.38;0.52;;;12.80;99.90;;;;;;5042137;28;20059;-46
2022/06/21 04:49:46;;;;;;;3.40;0.43;;;12.90;99.90;;;;;;5041094;28;20053;-47
2022/06/21 04:52:18;;;;;;;2.72;0.40;;;12.90;99.90;;;;;;5040038;28;20041;-46
2022/06/21 04:54:44;;;;;;;2.75;0.50;;;12.90;99.90;;;;;;5037786;28;20041;-46
2022/06/21 04:57:15;;;;;;;3.03;0.70;;;13.00;99.90;;;;;;5039725;28;20044;-46
2022/06/21 04:59:59;;;;;;;2.95;0.55;;;13.10;99.90;;;;;;5054745;28;20056;-45
2022/06/21 05:02:36;;;;;;;;;;;13.10;99.90;;;;;;5058761;28;20048;-46
2022/06/21 05:05:15;;;;;;;2.30;0.40;;;13.10;99.90;;;;;;5036004;28;19928;-47
2022/06/21 05:07:52;;;;;;;2.90;0.45;;;13.20;99.90;;;;;;5034806;28;20457;-46
2022/06/21 05:10:28;;;;;;;1.75;0.57;;;13.30;99.90;;;;;;5040062;28;20124;-47
2022/06/21 05:12:55;;;;;;;2.22;0.40;;;13.30;99.90;;;;;;5037120;28;20049;-45
2022/06/21 05:15:25;;;;;;;3.65;0.47;;;13.40;99.90;;;;;;5041502;28;20037;-46
2022/06/21 05:17:58;;;;;;;3.03;0.40;;;13.40;99.90;;;;;;5036327;28;20103;-46
2022/06/21 05:20:30;;;;;;;2.78;0.65;;;13.50;99.90;;;;;;5042394;28;20064;-46
2022/06/21 05:22:58;;;;;;;2.58;0.55;;;13.60;99.90;;;;;;5041948;28;20479;-46
2022/06/21 05:25:29;;;;;;;3.50;0.40;;;13.90;99.90;;;;;;5032258;28;20041;-46
2022/06/21 05:28:09;;;;;;;2.42;0.45;;;14.80;99.90;;;;;;5042074;28;20048;-47
2022/06/21 05:30:35;;;;;;;3.08;0.43;;;15.80;99.90;;;;;;5037287;28;20411;-47
2022/06/21 05:33:19;;;;;;;2.95;0.55;;;16.20;99.90;;;;;;5037457;28;20083;-45
2022/06/21 05:35:46;;;;;;;3.75;0.40;;;16.20;99.90;;;;;;5038637;28;20037;-48
2022/06/21 05:38:22;;;;;;;2.15;0.30;;;16.50;99.90;;;;;;5038868;28;20071;-47
2022/06/21 05:41:00;;;;;;;2.92;0.30;;;16.90;99.90;;;;;;5053000;28;20049;-47
2022/06/21 05:43:38;;;;;;;3.33;0.40;;;17.40;99.90;;;;;;5055740;28;20053;-46
2022/06/21 05:46:15;;;;;;;3.10;0.30;;;17.60;99.90;;;;;;5038717;28;20518;-48
2022/06/21 05:48:44;;;;;;;3.38;0.60;;;17.70;99.90;;;;;;5054132;28;20038;-47
2022/06/21 05:51:16;;;;;;;2.38;0.30;;;17.60;99.90;;;;;;5033712;28;20041;-48
2022/06/21 05:53:49;;;;;;;2.63;0.30;;;17.50;99.90;;;;;;5034524;28;20073;-47
2022/06/21 05:56:21;;;;;;;2.20;0.30;;;17.40;99.90;;;;;;5039560;28;20064;-47
2022/06/21 05:59:00;;;;;;;1.63;0.30;;;17.30;99.90;;;;;;5036197;28;20499;-46
2022/06/21 06:01:29;;;;;;;2.97;0.43;;;17.20;99.90;;;;;;5041866;28;20036;-47
2022/06/21 06:04:11;;;;;;;2.33;0.35;;;17.20;99.90;;;;;;5049230;28;20125;-46
2022/06/21 06:06:40;;;;;;;1.75;0.30;;;17.10;99.90;;;;;;5039384;28;20495;-48
2022/06/21 06:09:47;;;;;;;2.03;0.40;;;17.00;99.90;;;;;;5061667;28;20124;-50
2022/06/21 06:12:19;;;;;;;2.67;0.40;;;17.00;99.90;;;;;;5039289;28;20038;-49
2022/06/21 06:14:45;;;;;;;2.17;0.30;;;16.90;99.90;;;;;;5021540;28;20044;-47
2022/06/21 06:18:01;;;;;;;2.75;0.32;;;16.90;99.90;;;;;;5035202;28;20077;-48
2022/06/21 06:20:46;;;;;;;4.30;0.40;;;16.90;99.90;;;;;;5049401;28;20060;-47
2022/06/21 06:23:14;;;;;;;2.97;0.40;;;16.90;99.90;;;;;;5041051;28;20068;-48
2022/06/21 06:25:46;;;;;;;2.25;0.30;;;16.90;99.90;;;;;;5038760;28;20380;-48
2022/06/21 06:28:33;;;;;;;3.03;0.47;;;16.90;99.90;;;;;;5039695;28;20084;-49
2022/06/21 06:31:12;;;;;;;2.45;0.30;;;16.90;99.90;;;;;;5034323;28;20515;-48
2022/06/21 06:33:41;;;;;;;5.35;0.77;;;16.90;99.90;;;;;;5041817;28;20048;-49
2022/06/21 06:36:14;;;;;;;3.65;0.47;;;17.00;99.90;;;;;;5041218;28;20442;-49
2022/06/21 06:38:40;;;;;;;3.58;0.40;;;17.00;99.90;;;;;;5035051;28;20045;-47
2022/06/21 06:41:20;;;;;;;5.47;0.50;;;17.00;99.90;;;;;;5036785;28;20045;-48
2022/06/21 06:43:55;;;;;;;5.63;0.45;;;17.10;99.90;;;;;;5038222;28;20033;-46
2022/06/21 06:46:29;;;;;;;15.73;0.88;;;17.10;99.90;;;;;;5036752;28;20146;-50
2022/06/21 06:49:40;;;;;;;5.30;0.73;;;17.20;99.90;;;;;;5052102;28;20442;-48
2022/06/21 06:52:17;;;;;;;3.83;0.47;;;17.20;99.90;;;;;;5039372;28;20059;-49
2022/06/21 06:54:58;;;;;;;7.50;0.75;;;17.30;99.90;;;;;;5033755;28;20041;-48
2022/06/21 06:57:32;;;;;;;5.68;0.50;;;17.30;99.90;;;;;;5041674;28;20055;-49
2022/06/21 07:00:00;;;;;;;11.90;0.95;;;17.40;99.90;;;;;;5021829;28;20110;-46
2022/06/21 07:02:46;;;;;;;5.90;0.60;;;17.50;99.90;;;;;;5039134;28;20033;-46
2022/06/21 07:05:14;;;;;;;9.98;1.00;;;17.50;99.90;;;;;;5042983;28;20037;-49
2022/06/21 07:07:56;;;;;;;9.70;0.57;;;17.60;99.90;;;;;;5037557;28;20119;-48
2022/06/21 07:10:25;;;;;;;3.95;0.60;;;17.70;99.90;;;;;;5034461;28;20207;-45
2022/06/21 07:12:53;;;;;;;5.80;0.57;;;17.80;99.90;;;;;;5042301;28;20036;-49
2022/06/21 07:15:21;;;;;;;5.30;0.77;;;17.80;99.90;;;;;;5032305;28;20080;-47
2022/06/21 07:17:54;;;;;;;6.28;0.50;;;17.90;99.90;;;;;;5032316;28;20519;-46
2022/06/21 07:20:27;;;;;;;8.82;0.70;;;17.90;99.90;;;;;;5059720;28;20048;-48
2022/06/21 07:22:55;;;;;;;;;;;18.00;99.90;;;;;;5045331;28;20041;-49
2022/06/21 07:25:33;;;;;;;4.88;0.52;;;18.00;99.90;;;;;;5045714;28;19921;-48
2022/06/21 07:28:14;;;;;;;4.13;0.50;;;18.10;99.90;;;;;;5040537;28;20052;-48
2022/06/21 07:30:43;;;;;;;3.30;0.43;;;18.20;99.90;;;;;;5041359;28;20506;-49
2022/06/21 07:33:18;;;;;;;6.45;0.77;;;18.30;99.90;;;;;;5036296;28;20037;-47
2022/06/21 07:36:15;;;;;;;9.68;0.90;;;18.40;99.90;;;;;;5036518;28;20541;-46
2022/06/21 07:38:55;;;;;;;5.13;0.63;;;18.40;99.90;;;;;;5048300;28;20046;-47
2022/06/21 07:41:32;;;;;;;4.63;0.60;;;18.50;99.90;;;;;;5053002;28;20052;-47
2022/06/21 07:44:04;;;;;;;4.78;0.57;;;18.50;99.90;;;;;;5055353;28;20563;-50
2022/06/21 07:46:45;;;;;;;4.28;0.50;;;18.60;99.90;;;;;;5038349;28;20085;-49
2022/06/21 07:49:19;;;;;;;3.20;0.40;;;18.70;99.90;;;;;;5033589;28;20043;-48
2022/06/21 07:51:50;;;;;;;3.00;0.65;;;18.80;99.90;;;;;;5034982;28;20033;-49
2022/06/21 07:54:21;;;;;;;3.40;0.50;;;18.90;99.90;;;;;;5034051;28;20539;-47
2022/06/21 07:57:00;;;;;;;4.47;0.73;;;18.90;99.90;;;;;;5040236;28;20530;-48
2022/06/21 07:59:43;;;;;;;5.43;0.50;;;19.00;99.90;;;;;;5036521;28;20402;-44
2022/06/21 08:08:15;;;;;;;3.83;0.50;;;19.20;99.90;;;;;;5036320;28;20060;-46
2022/06/21 08:11:11;;;;;;;3.97;0.57;;;19.20;99.90;;;;;;5033852;28;20049;-50
2022/06/21 08:13:38;;;;;;;3.03;0.50;;;19.30;99.90;;;;;;5036553;28;20107;-49
2022/06/21 08:16:15;;;;;;;3.50;0.40;;;19.40;99.90;;;;;;5034905;28;20052;-47
2022/06/21 08:18:47;;;;;;;4.45;0.77;;;19.50;99.90;;;;;;5040495;28;20126;-48
2022/06/21 08:21:20;;;;;;;5.63;0.55;;;19.50;99.90;;;;;;5036587;28;20056;-48
2022/06/21 08:24:14;;;;;;;3.80;0.50;;;19.60;99.90;;;;;;5034039;28;20342;-50
2022/06/21 08:26:46;;;;;;;5.80;0.73;;;19.60;99.90;;;;;;5053312;28;20527;-46
2022/06/21 08:29:32;;;;;;;7.45;0.70;;;19.70;99.90;;;;;;5035906;28;20037;-49
2022/06/21 08:32:09;;;;;;;18.40;1.40;;;19.70;99.90;;;;;;5036264;28;20446;-48
2022/06/21 08:34:49;;;;;;;8.00;1.02;;;19.80;99.90;;;;;;5049086;28;20072;-49
2022/06/21 08:37:26;;;;;;;8.50;0.77;;;19.90;99.90;;;;;;5034951;28;20135;-46
2022/06/21 08:40:09;;;;;;;6.45;0.80;;;19.90;99.90;;;;;;5037684;28;20073;-49
2022/06/21 08:42:44;;;;;;;4.53;0.57;;;20.00;99.90;;;;;;5035565;28;20044;-48
2022/06/21 08:48:42;;;;;;;5.45;0.80;;;20.10;99.90;;;;;;5049219;28;20050;-47
2022/06/21 08:51:24;;;;;;;6.10;0.68;;;20.20;99.90;;;;;;5036105;28;20078;-46
2022/06/21 08:54:08;;;;;;;13.13;1.42;;;20.30;99.90;;;;;;5035895;28;20095;-46
2022/06/21 08:56:52;;;;;;;14.95;1.58;;;20.40;99.90;;;;;;5035650;28;20048;-47
2022/06/21 08:59:25;;;;;;;8.27;0.88;;;20.50;99.90;;;;;;5035542;28;20056;-49
2022/06/21 09:02:08;;;;;;;6.38;0.82;;;20.50;99.90;;;;;;5036941;28;20134;-48
2022/06/21 09:04:52;;;;;;;;;;;20.50;99.90;;;;;;5050575;28;20412;-47
2022/06/21 09:07:29;;;;;;;6.07;0.80;;;20.60;99.90;;;;;;5052074;28;19944;-45
2022/06/21 09:10:16;;;;;;;5.45;0.70;;;20.60;99.90;;;;;;5049706;28;20033;-46
2022/06/21 09:13:07;;;;;;;3.63;0.52;;;20.70;99.90;;;;;;5034860;28;20048;-49
2022/06/21 09:15:47;;;;;;;4.82;0.65;;;20.80;99.90;;;;;;5038263;28;20454;-45
2022/06/21 09:18:34;;;;;;;4.38;0.70;;;20.90;99.90;;;;;;5039827;28;20052;-45
2022/06/21 09:21:15;;;;;;;5.25;0.77;;;21.00;99.90;;;;;;5039227;28;20041;-48
2022/06/21 09:23:59;;;;;;;5.30;0.57;;;21.10;99.90;;;;;;5036058;28;20041;-45
2022/06/21 09:26:37;;;;;;;4.43;0.82;;;21.20;99.90;;;;;;5037460;28;20044;-45
2022/06/21 09:29:29;;;;;;;4.07;0.70;;;21.30;99.90;;;;;;5053061;28;20491;-48
2022/06/21 09:32:21;;;;;;;4.47;0.70;;;21.40;99.90;;;;;;5038122;28;20164;-46
2022/06/21 09:34:56;;;;;;;3.95;0.60;;;21.50;99.90;;;;;;5038462;28;20111;-46
2022/06/21 09:37:27;;;;;;;4.40;0.98;;;21.60;99.90;;;;;;5042714;28;20037;-47
2022/06/21 09:40:06;;;;;;;7.57;0.70;;;21.60;99.90;;;;;;5037182;28;20072;-44
2022/06/21 09:42:39;;;;;;;9.32;1.10;;;21.70;99.90;;;;;;5040166;28;20045;-46
2022/06/21 09:45:25;;;;;;;4.00;0.60;;;21.80;99.90;;;;;;5057807;28;20064;-47
2022/06/21 09:48:00;;;;;;;4.30;0.60;;;21.90;99.90;;;;;;5040912;28;20047;-47
2022/06/21 09:50:40;;;;;;;5.75;0.93;;;22.00;99.90;;;;;;5036819;28;21395;-46
2022/06/21 09:53:44;;;;;;;3.75;0.65;;;22.10;99.90;;;;;;5039144;28;20038;-49
2022/06/21 09:56:12;;;;;;;;;;;22.20;99.90;;;;;;5020804;28;20041;-47
2022/06/21 09:59:05;;;;;;;4.30;0.50;;;22.30;99.90;;;;;;5055523;28;19924;-51
2022/06/21 10:01:44;;;;;;;3.95;0.60;;;22.30;99.90;;;;;;5040094;28;20429;-49
2022/06/21 10:04:15;;;;;;;3.25;0.60;;;22.40;99.90;;;;;;5052477;28;20041;-47
2022/06/21 10:06:52;;;;;;;2.95;0.65;;;22.30;99.90;;;;;;5043018;28;20033;-47
2022/06/21 10:09:53;;;;;;;2.72;0.60;;;22.40;99.90;;;;;;5041405;28;20403;-49
2022/06/21 10:12:41;;;;;;;2.97;0.55;;;22.40;99.90;;;;;;5040691;28;20041;-48
2022/06/21 10:15:42;;;;;;;4.45;0.65;;;22.30;99.80;;;;;;5037354;28;20403;-46
2022/06/21 10:18:30;;;;;;;5.65;0.82;;;22.30;99.90;;;;;;5040151;28;20040;-46
2022/06/21 10:21:24;;;;;;;3.65;0.88;;;22.40;99.90;;;;;;5036250;28;20072;-50
2022/06/21 10:23:50;;;;;;;3.45;0.88;;;22.40;99.90;;;;;;5038784;28;20045;-49
2022/06/21 10:26:27;;;;;;;4.63;1.33;;;22.50;99.70;;;;;;5038716;28;20428;-47
2022/06/21 10:29:11;;;;;;;3.47;0.60;;;22.50;99.20;;;;;;5039130;28;20523;-49
2022/06/21 10:32:06;;;;;;;3.72;0.70;;;22.70;99.00;;;;;;5039859;28;20048;-48
2022/06/21 10:34:46;;;;;;;4.57;0.65;;;22.70;98.00;;;;;;5038885;28;20107;-47
2022/06/21 10:37:46;;;;;;;4.97;0.80;;;22.80;96.40;;;;;;5034871;28;20042;-48
2022/06/21 10:40:15;;;;;;;2.83;0.73;;;22.90;97.10;;;;;;5039994;28;20064;-48
2022/06/21 10:42:58;;;;;;;1.95;0.50;;;22.90;96.80;;;;;;5037407;28;20519;-47
2022/06/21 10:45:49;;;;;;;3.75;0.80;;;23.00;97.40;;;;;;5036594;28;20061;-47
2022/06/21 10:48:30;;;;;;;3.13;0.70;;;23.10;96.90;;;;;;5053283;28;20049;-46
2022/06/21 10:51:37;;;;;;;2.65;0.63;;;23.10;96.40;;;;;;5037176;28;20514;-47
2022/06/21 10:54:13;;;;;;;3.53;0.80;;;23.20;96.40;;;;;;5024522;28;20107;-46
2022/06/21 10:57:13;;;;;;;4.70;1.00;;;23.30;95.70;;;;;;5038473;28;20041;-48
2022/06/21 11:02:51;;;;;;;3.80;0.98;;;23.40;95.20;;;;;;5037693;28;20041;-47
2022/06/21 11:05:39;;;;;;;4.32;0.73;;;23.50;94.50;;;;;;5035951;28;20468;-47
2022/06/21 11:08:27;;;;;;;2.30;0.50;;;23.60;93.30;;;;;;5037928;28;20037;-47
2022/06/21 11:11:24;;;;;;;1.77;0.50;;;23.60;92.50;;;;;;5019503;28;20041;-48
2022/06/21 11:14:17;;;;;;;2.85;0.70;;;23.70;93.00;;;;;;5037022;28;20565;-47
2022/06/21 11:17:26;;;;;;;1.63;0.40;;;23.80;92.90;;;;;;5048500;28;20348;-47
2022/06/21 11:20:20;;;;;;;2.40;0.40;;;24.00;92.20;;;;;;5038972;28;20033;-49
2022/06/21 11:22:59;;;;;;;4.90;0.70;;;24.00;93.50;;;;;;5039494;28;20056;-50
2022/06/21 11:25:49;;;;;;;4.30;0.57;;;24.10;94.00;;;;;;5053196;28;20083;-47
2022/06/21 11:28:31;;;;;;;3.30;0.60;;;24.20;94.20;;;;;;5038125;28;20036;-47
2022/06/21 11:31:10;;;;;;;2.30;0.50;;;24.20;94.10;;;;;;5039395;28;20113;-48
2022/06/21 11:34:07;;;;;;;3.65;0.45;;;24.30;94.10;;;;;;5036983;28;20127;-49
2022/06/21 11:36:46;;;;;;;4.88;0.60;;;24.30;94.20;;;;;;5037472;28;20037;-48
2022/06/21 11:39:36;;;;;;;3.33;0.50;;;24.30;93.30;;;;;;5033345;28;20073;-46
2022/06/21 11:42:10;;;;;;;2.40;0.60;;;24.30;94.10;;;;;;5038517;28;20041;-45
2022/06/21 11:44:46;;;;;;;3.88;0.60;;;24.20;94.40;;;;;;5036463;28;20052;-46
2022/06/21 11:47:29;;;;;;;5.13;0.80;;;24.30;94.60;;;;;;5038666;28;20049;-48
2022/06/21 11:50:03;;;;;;;2.60;0.60;;;24.30;94.70;;;;;;5060487;28;20045;-49
2022/06/21 11:52:38;;;;;;;3.80;0.70;;;24.20;94.70;;;;;;5040372;28;20833;-49
2022/06/21 11:55:29;;;;;;;2.80;0.60;;;24.20;94.80;;;;;;5037973;28;20048;-49
2022/06/21 11:58:19;;;;;;;3.05;0.50;;;24.30;94.20;;;;;;5038712;28;20084;-47
2022/06/21 12:00:54;;;;;;;2.90;0.70;;;24.30;94.30;;;;;;5037024;28;20077;-49
2022/06/21 12:03:54;;;;;;;2.92;0.60;;;24.20;93.50;;;;;;5055284;28;20046;-48
2022/06/21 12:06:34;;;;;;;5.80;0.75;;;24.30;94.20;;;;;;5019430;28;20832;-46
2022/06/21 12:09:15;;;;;;;13.63;1.45;;;24.30;93.90;;;;;;5034632;28;20041;-50
2022/06/21 12:12:01;;;;;;;10.57;0.90;;;24.40;93.40;;;;;;5041177;28;20033;-47
2022/06/21 12:14:50;;;;;;;6.97;1.30;;;24.40;93.90;;;;;;5038506;28;20048;-49
2022/06/21 12:17:27;;;;;;;30.23;2.55;;;24.50;93.50;;;;;;5038094;28;20097;-48
2022/06/21 12:19:59;;;;;;;14.82;1.25;;;24.50;93.50;;;;;;5059258;28;20099;-48
2022/06/21 12:22:32;;;;;;;16.35;2.10;;;24.60;92.70;;;;;;5037184;28;20040;-49
2022/06/21 12:24:58;;;;;;;13.00;1.30;;;24.60;92.50;;;;;;5036578;28;20073;-46
2022/06/21 12:27:25;;;;;;;7.38;1.00;;;24.60;92.30;;;;;;5037790;28;20065;-48
2022/06/21 12:30:07;;;;;;;9.32;1.13;;;24.70;92.30;;;;;;5034490;28;20492;-47
2022/06/21 12:32:33;;;;;;;89.25;10.60;;;24.70;92.10;;;;;;5035664;28;20083;-47
2022/06/21 12:35:11;;;;;;;34.25;5.22;;;24.70;92.20;;;;;;5041365;28;20048;-49
2022/06/21 12:37:53;;;;;;;29.90;4.28;;;24.80;91.30;;;;;;5041855;28;20060;-47
2022/06/21 12:40:27;;;;;;;25.23;2.53;;;24.80;91.60;;;;;;5055716;28;20502;-49
2022/06/21 12:43:23;;;;;;;23.98;4.35;;;24.70;90.80;;;;;;5035624;28;20037;-50
2022/06/21 12:45:57;;;;;;;22.58;3.00;;;24.80;90.60;;;;;;5035697;28;20191;-48
2022/06/21 12:48:41;;;;;;;15.50;2.47;;;24.70;90.00;;;;;;5060191;28;20408;-48
2022/06/21 12:51:32;;;;;;;9.95;1.27;;;24.80;90.80;;;;;;5039490;28;20067;-49
2022/06/21 12:54:17;;;;;;;142.32;16.00;;;24.80;90.70;;;;;;5038763;28;20033;-47
2022/06/21 12:57:04;;;;;;;135.25;16.00;;;24.80;91.30;;;;;;5042433;28;20041;-47
2022/06/21 12:59:48;;;;;;;48.65;5.82;;;24.90;91.10;;;;;;5047361;28;20040;-48
2022/06/21 13:02:20;;;;;;;39.83;5.68;;;24.90;90.90;;;;;;5038958;28;20514;-48
2022/06/21 13:05:15;;;;;;;106.78;13.30;;;25.00;90.90;;;;;;5041764;28;20443;-49
2022/06/21 13:08:05;;;;;;;64.03;9.90;;;25.00;91.10;;;;;;5063990;28;20159;-47
2022/06/21 13:11:08;;;;;;;132.90;16.30;;;25.10;91.30;;;;;;5039736;28;20525;-48
2022/06/21 13:13:51;;;;;;;112.63;14.93;;;25.20;91.80;;;;;;5044185;28;20495;-46
2022/06/21 13:16:54;;;;;;;204.50;22.70;;;25.20;91.70;;;;;;5035465;28;20120;-49
2022/06/21 13:19:25;;;;;;;139.10;17.55;;;25.30;91.60;;;;;;5042111;28;20045;-47
2022/06/21 13:22:12;;;;;;;108.07;13.80;;;25.30;91.10;;;;;;5040943;28;20502;-47
2022/06/21 13:25:11;;;;;;;63.45;9.15;;;25.40;90.00;;;;;;5041678;28;20044;-47
2022/06/21 13:28:01;;;;;;;48.35;7.05;;;25.40;90.30;;;;;;5036898;28;20037;-50
2022/06/21 13:30:55;;;;;;;36.50;5.40;;;25.50;90.20;;;;;;5058501;28;20218;-49
2022/06/21 13:33:47;;;;;;;32.38;4.57;;;25.50;89.20;;;;;;5041678;28;20041;-48
2022/06/21 13:36:23;;;;;;;18.63;2.93;;;25.60;89.50;;;;;;5038273;28;20049;-48
2022/06/21 13:39:11;;;;;;;15.98;2.20;;;25.70;89.10;;;;;;5038105;28;20053;-47
2022/06/21 13:44:57;;;;;;;13.15;2.00;;;25.80;89.00;;;;;;5051488;28;20056;-49
2022/06/21 13:47:31;;;;;;;8.15;1.15;;;25.80;87.30;;;;;;5045667;28;21343;-47
2022/06/21 13:50:14;;;;;;;9.43;1.10;;;25.80;87.40;;;;;;5037349;28;20033;-48
2022/06/21 13:52:42;;;;;;;;;;;25.90;86.40;;;;;;5039804;28;20091;-47
2022/06/21 13:55:21;;;;;;;6.32;0.75;;;25.80;87.10;;;;;;5021250;28;19935;-49
2022/06/21 13:58:26;;;;;;;5.78;0.65;;;25.80;86.90;;;;;;5039610;28;20049;-51
2022/06/21 14:01:12;;;;;;;5.95;0.90;;;25.80;87.10;;;;;;5031396;28;20080;-47